Time;durP1;ratioP1;P1;durP2;ratioP2;P2;SDS_P1;SDS_P2;PMS_P1;PMS_P2;Temp;Humidity;BMP_temperature;BMP_pressure;BME280_temperature;BME280_humidity;BME280_pressure;Samples;Min_cycle;Max_cycle;Signal;HPM_P1;HPM_P2
2022/04/02 00:01:48;;;;;;;1.02;0.70;;;22.40;39.40;;;;;;4990784;28;20057;-63
2022/04/02 00:04:14;;;;;;;0.80;0.75;;;22.40;39.40;;;;;;4993443;28;20069;-66
2022/04/02 00:06:39;;;;;;;1.08;0.80;;;22.40;39.40;;;;;;4993001;28;20025;-62
2022/04/02 00:09:05;;;;;;;0.90;0.70;;;22.40;39.50;;;;;;4994967;28;20034;-64
2022/04/02 00:11:31;;;;;;;1.30;0.80;;;22.30;39.40;;;;;;4994304;28;20102;-64
2022/04/02 00:13:58;;;;;;;0.68;0.60;;;22.30;39.40;;;;;;4996034;28;20041;-68
2022/04/02 00:16:24;;;;;;;0.93;0.80;;;22.30;39.50;;;;;;4992546;28;20033;-64
2022/04/02 00:18:50;;;;;;;0.85;0.70;;;22.20;39.40;;;;;;4992008;28;20029;-62
2022/04/02 00:21:19;;;;;;;1.35;0.80;;;22.20;39.50;;;;;;4994324;28;20745;-63
2022/04/02 00:23:46;;;;;;;0.98;0.80;;;22.20;39.60;;;;;;4993982;28;20014;-68
2022/04/02 00:26:20;;;;;;;0.70;0.70;;;22.20;39.60;;;;;;4995352;28;20069;-69
2022/04/02 00:28:48;;;;;;;1.38;0.70;;;22.10;39.50;;;;;;4994408;28;20109;-64
2022/04/02 00:31:15;;;;;;;0.93;0.63;;;22.10;39.60;;;;;;4995792;28;20083;-65
2022/04/02 00:33:42;;;;;;;0.80;0.75;;;22.10;39.60;;;;;;4996064;28;20462;-63
2022/04/02 00:36:08;;;;;;;0.65;0.60;;;22.10;39.70;;;;;;4996265;28;20026;-64
2022/04/02 00:38:34;;;;;;;1.13;0.80;;;22.00;39.70;;;;;;4996845;28;20037;-62
2022/04/02 00:41:00;;;;;;;1.27;0.80;;;22.00;39.70;;;;;;4998811;28;20036;-64
2022/04/02 00:43:28;;;;;;;1.00;0.80;;;22.00;39.80;;;;;;4997961;28;20461;-63
2022/04/02 00:45:55;;;;;;;0.77;0.60;;;22.00;39.80;;;;;;4996599;28;20029;-63
2022/04/02 00:48:22;;;;;;;1.02;0.80;;;22.00;39.80;;;;;;4994352;28;20093;-68
2022/04/02 00:50:52;;;;;;;1.00;0.80;;;21.90;39.80;;;;;;4998281;28;20518;-62
2022/04/02 00:53:20;;;;;;;0.95;0.75;;;21.90;39.90;;;;;;4997652;28;20021;-64
2022/04/02 00:55:45;;;;;;;1.00;0.70;;;21.90;39.90;;;;;;4998780;28;20030;-64
2022/04/02 00:58:12;;;;;;;0.60;0.60;;;21.90;39.90;;;;;;4996595;28;20048;-63
2022/04/02 01:00:40;;;;;;;0.77;0.70;;;21.80;40.00;;;;;;4996397;28;20551;-62
2022/04/02 01:03:07;;;;;;;0.75;0.70;;;21.80;40.00;;;;;;4995540;28;20053;-64
2022/04/02 01:05:35;;;;;;;0.80;0.70;;;21.80;40.00;;;;;;4997859;28;20521;-63
2022/04/02 01:08:05;;;;;;;0.93;0.65;;;21.80;40.10;;;;;;4996101;28;20080;-64
2022/04/02 01:10:33;;;;;;;0.90;0.80;;;21.70;40.10;;;;;;4994876;28;20058;-62
2022/04/02 01:12:59;;;;;;;1.00;0.70;;;21.70;40.10;;;;;;4994829;28;20205;-62
2022/04/02 01:15:28;;;;;;;0.90;0.70;;;21.70;40.10;;;;;;4996787;28;20116;-64
2022/04/02 01:17:55;;;;;;;1.05;0.80;;;21.70;40.10;;;;;;4993010;28;20033;-64
2022/04/02 01:20:23;;;;;;;1.10;0.80;;;21.70;40.10;;;;;;4994698;28;20049;-63
2022/04/02 01:22:49;;;;;;;1.17;0.80;;;21.70;40.20;;;;;;4996327;28;20434;-61
2022/04/02 01:25:15;;;;;;;1.00;0.80;;;21.60;40.20;;;;;;4997123;28;20161;-68
2022/04/02 01:27:43;;;;;;;0.70;0.60;;;21.60;40.20;;;;;;4995064;28;20030;-61
2022/04/02 01:30:10;;;;;;;0.68;0.60;;;21.60;40.30;;;;;;4995610;28;20030;-65
2022/04/02 01:32:35;;;;;;;1.55;0.80;;;21.60;40.30;;;;;;5007549;28;20129;-63
2022/04/02 01:35:01;;;;;;;0.85;0.70;;;21.60;40.30;;;;;;4995743;28;20112;-64
2022/04/02 01:37:26;;;;;;;0.98;0.73;;;21.60;40.40;;;;;;4995246;28;20052;-63
2022/04/02 01:39:52;;;;;;;0.80;0.70;;;21.50;40.30;;;;;;4993433;28;20451;-62
2022/04/02 01:42:20;;;;;;;0.68;0.68;;;21.50;40.30;;;;;;4995237;28;20418;-65
2022/04/02 01:44:51;;;;;;;0.77;0.70;;;21.50;40.30;;;;;;4993452;28;20025;-68
2022/04/02 01:47:21;;;;;;;0.90;0.70;;;21.50;40.40;;;;;;4994333;28;20467;-64
2022/04/02 01:49:48;;;;;;;1.27;0.80;;;21.50;40.40;;;;;;4995797;28;20030;-66
2022/04/02 01:52:18;;;;;;;0.85;0.70;;;21.50;40.40;;;;;;4994409;28;20049;-63
2022/04/02 01:54:44;;;;;;;0.80;0.70;;;21.50;40.40;;;;;;4997599;28;20082;-64
2022/04/02 01:57:10;;;;;;;0.93;0.80;;;21.40;40.40;;;;;;4993018;28;20030;-68
2022/04/02 01:59:38;;;;;;;1.02;0.70;;;21.50;40.40;;;;;;4994916;28;20034;-62
2022/04/02 02:02:04;;;;;;;0.90;0.77;;;21.40;40.40;;;;;;4990127;28;20050;-63
2022/04/02 02:04:31;;;;;;;0.70;0.70;;;21.40;40.40;;;;;;4994017;28;20056;-62
2022/04/02 02:06:56;;;;;;;0.73;0.70;;;21.40;40.50;;;;;;4996362;28;20069;-62
2022/04/02 02:09:22;;;;;;;1.20;0.85;;;21.40;40.50;;;;;;4994544;28;20034;-64
2022/04/02 02:11:47;;;;;;;0.85;0.60;;;21.40;40.50;;;;;;4996021;28;20030;-64
2022/04/02 02:14:13;;;;;;;1.00;0.70;;;21.40;40.50;;;;;;4996741;28;20034;-69
2022/04/02 02:16:38;;;;;;;0.90;0.70;;;21.40;40.50;;;;;;4994128;28;20087;-62
2022/04/02 02:19:04;;;;;;;1.25;0.82;;;21.40;40.50;;;;;;4993252;28;20037;-62
2022/04/02 02:21:30;;;;;;;0.93;0.75;;;21.40;40.50;;;;;;4995013;28;20034;-62
2022/04/02 02:23:56;;;;;;;1.33;0.80;;;21.30;40.50;;;;;;4994513;28;20033;-62
2022/04/02 02:26:22;;;;;;;0.75;0.70;;;21.30;40.60;;;;;;4994928;28;20034;-62
2022/04/02 02:28:48;;;;;;;1.95;0.80;;;21.30;40.60;;;;;;4995355;28;20032;-69
2022/04/02 02:31:14;;;;;;;0.98;0.82;;;21.30;40.60;;;;;;5007078;28;20042;-64
2022/04/02 02:36:25;;;;;;;1.00;0.80;;;21.30;40.60;;;;;;4995068;28;20123;-63
2022/04/02 02:38:51;;;;;;;1.10;0.80;;;21.30;40.60;;;;;;4993209;28;20163;-64
2022/04/02 02:41:17;;;;;;;1.00;0.80;;;21.30;40.60;;;;;;4995373;28;20116;-64
2022/04/02 02:43:42;;;;;;;1.35;0.90;;;21.30;40.60;;;;;;4993746;28;20033;-63
2022/04/02 02:46:08;;;;;;;1.00;0.70;;;21.30;40.60;;;;;;4995065;28;20169;-68
2022/04/02 02:48:34;;;;;;;0.65;0.63;;;21.30;40.60;;;;;;4992536;28;20397;-63
2022/04/02 02:51:00;;;;;;;1.15;0.82;;;21.30;40.60;;;;;;4993912;28;20033;-64
2022/04/02 02:53:26;;;;;;;2.40;0.90;;;21.30;40.60;;;;;;4993138;28;20402;-62
2022/04/02 02:55:51;;;;;;;1.00;0.70;;;21.30;40.60;;;;;;4996155;28;20394;-62
2022/04/02 02:58:17;;;;;;;1.83;0.90;;;21.30;40.60;;;;;;4993460;28;20068;-68
2022/04/02 03:00:43;;;;;;;0.98;0.70;;;21.20;40.60;;;;;;4991555;28;20076;-64
2022/04/02 03:03:09;;;;;;;0.82;0.70;;;21.30;40.70;;;;;;4989915;28;20470;-64
2022/04/02 03:05:35;;;;;;;1.08;0.80;;;21.20;40.60;;;;;;4994463;28;20147;-62
2022/04/02 03:08:01;;;;;;;1.25;0.80;;;21.20;40.60;;;;;;4993025;28;20724;-63
2022/04/02 03:10:27;;;;;;;0.95;0.80;;;21.20;40.60;;;;;;4995006;28;20089;-69
2022/04/02 03:12:55;;;;;;;0.90;0.70;;;21.20;40.70;;;;;;4993162;28;20029;-62
2022/04/02 03:15:21;;;;;;;0.70;0.70;;;21.20;40.70;;;;;;4994492;28;20037;-64
2022/04/02 03:17:48;;;;;;;1.15;0.73;;;21.20;40.70;;;;;;4991181;28;20038;-68
2022/04/02 03:20:17;;;;;;;1.35;0.80;;;21.20;40.70;;;;;;4992624;28;20034;-64
2022/04/02 03:22:45;;;;;;;1.10;0.80;;;21.20;40.70;;;;;;4993456;28;20046;-68
2022/04/02 03:25:12;;;;;;;1.23;0.80;;;21.20;40.70;;;;;;4995111;28;20273;-64
2022/04/02 03:27:43;;;;;;;1.05;0.80;;;21.20;40.70;;;;;;4993533;28;20026;-69
2022/04/02 03:30:10;;;;;;;1.27;0.80;;;21.10;40.70;;;;;;4991854;28;20903;-64
2022/04/02 03:32:36;;;;;;;1.00;0.80;;;21.10;40.70;;;;;;4991447;28;20026;-64
2022/04/02 03:35:02;;;;;;;1.13;0.80;;;21.20;40.80;;;;;;4992484;28;20048;-63
2022/04/02 03:37:28;;;;;;;1.15;0.88;;;21.10;40.70;;;;;;4993476;28;20025;-64
2022/04/02 03:39:54;;;;;;;0.95;0.75;;;21.10;40.70;;;;;;4995163;28;20113;-68
2022/04/02 03:42:20;;;;;;;1.73;0.80;;;21.10;40.70;;;;;;4992479;28;20501;-64
2022/04/02 03:44:46;;;;;;;0.80;0.70;;;21.10;41.20;;;;;;4993626;28;20068;-63
2022/04/02 03:47:12;;;;;;;1.13;0.70;;;21.10;40.70;;;;;;4990164;28;20406;-64
2022/04/02 03:49:43;;;;;;;1.42;0.80;;;21.10;40.70;;;;;;4991547;28;20034;-64
2022/04/02 03:52:08;;;;;;;1.42;0.85;;;21.10;40.70;;;;;;4993358;28;20065;-63
2022/04/02 03:54:35;;;;;;;0.88;0.80;;;21.10;40.70;;;;;;4993549;28;20083;-62
2022/04/02 03:57:05;;;;;;;0.90;0.80;;;21.10;40.70;;;;;;4994311;28;20048;-64
2022/04/02 03:59:31;;;;;;;0.82;0.70;;;21.10;40.70;;;;;;4992459;28;20395;-68
2022/04/02 04:01:58;;;;;;;1.17;0.80;;;21.10;40.70;;;;;;4989853;28;20107;-61
2022/04/02 04:04:24;;;;;;;0.93;0.70;;;21.10;40.70;;;;;;4993298;28;20454;-68
2022/04/02 04:06:51;;;;;;;1.13;0.80;;;21.10;40.70;;;;;;4996769;28;20084;-61
2022/04/02 04:09:17;;;;;;;0.98;0.70;;;21.00;40.70;;;;;;5009956;28;20049;-64
2022/04/02 04:11:43;;;;;;;1.00;0.88;;;21.00;40.80;;;;;;4998703;28;20056;-64
2022/04/02 04:14:09;;;;;;;0.70;0.70;;;21.10;40.80;;;;;;4998381;28;20040;-63
2022/04/02 04:16:35;;;;;;;1.10;0.80;;;21.10;40.80;;;;;;4993705;28;20021;-63
2022/04/02 04:19:00;;;;;;;1.00;0.70;;;21.00;40.80;;;;;;4995576;28;20435;-68
2022/04/02 04:21:26;;;;;;;1.33;0.80;;;21.00;40.80;;;;;;4996618;28;20029;-67
2022/04/02 04:23:52;;;;;;;1.40;0.77;;;21.00;40.80;;;;;;5011760;28;20076;-64
2022/04/02 04:26:18;;;;;;;1.00;0.82;;;21.00;40.90;;;;;;4995799;28;20716;-65
2022/04/02 04:28:45;;;;;;;0.88;0.70;;;21.00;40.90;;;;;;4991433;28;20022;-64
2022/04/02 04:31:10;;;;;;;1.38;0.80;;;21.00;40.90;;;;;;4994725;28;20743;-63
2022/04/02 04:33:37;;;;;;;1.25;0.90;;;21.00;40.90;;;;;;4992316;28;20056;-63
2022/04/02 04:36:03;;;;;;;1.10;0.80;;;21.00;40.90;;;;;;4993836;28;20488;-64
2022/04/02 04:38:29;;;;;;;0.80;0.80;;;21.00;40.90;;;;;;4997429;28;20147;-64
2022/04/02 04:40:55;;;;;;;1.20;0.80;;;21.00;40.90;;;;;;4995302;28;20034;-62
2022/04/02 04:43:21;;;;;;;1.20;0.70;;;21.00;40.90;;;;;;4997176;28;20030;-67
2022/04/02 04:45:46;;;;;;;0.95;0.70;;;21.00;41.40;;;;;;4992735;28;20041;-64
2022/04/02 04:48:12;;;;;;;1.00;0.80;;;21.00;40.90;;;;;;4991906;28;20030;-67
2022/04/02 04:50:38;;;;;;;0.88;0.75;;;20.90;40.80;;;;;;4994353;28;20040;-64
2022/04/02 04:53:04;;;;;;;0.60;0.60;;;20.90;40.80;;;;;;4994770;28;20022;-67
2022/04/02 04:55:30;;;;;;;0.90;0.80;;;20.90;41.30;;;;;;4998230;28;20042;-62
2022/04/02 04:57:56;;;;;;;1.20;0.88;;;20.90;40.80;;;;;;4994743;28;20030;-68
2022/04/02 05:00:22;;;;;;;1.10;0.77;;;20.90;40.80;;;;;;4999394;28;20044;-63
2022/04/02 05:02:47;;;;;;;0.68;0.60;;;20.90;40.80;;;;;;4990989;28;20080;-61
2022/04/02 05:05:14;;;;;;;1.08;0.77;;;20.90;40.80;;;;;;4992439;28;20057;-64
2022/04/02 05:07:40;;;;;;;1.25;0.82;;;20.90;40.80;;;;;;4990276;28;20565;-64
2022/04/02 05:10:08;;;;;;;1.08;0.90;;;20.90;40.80;;;;;;4997828;28;20045;-64
2022/04/02 05:12:34;;;;;;;1.33;0.90;;;20.90;40.80;;;;;;4992843;28;20099;-63
2022/04/02 05:15:00;;;;;;;0.88;0.75;;;20.90;40.80;;;;;;4994461;28;20037;-67
2022/04/02 05:17:26;;;;;;;1.90;1.08;;;20.90;40.80;;;;;;4989072;28;20635;-62
2022/04/02 05:19:52;;;;;;;0.70;0.70;;;20.80;40.80;;;;;;4988623;28;20114;-62
2022/04/02 05:22:18;;;;;;;1.10;0.70;;;20.80;40.80;;;;;;4993396;28;20380;-62
2022/04/02 05:24:43;;;;;;;1.38;0.90;;;20.80;40.80;;;;;;4991936;28;20037;-64
2022/04/02 05:27:09;;;;;;;2.03;0.80;;;20.90;40.80;;;;;;4994419;28;20046;-62
2022/04/02 05:29:35;;;;;;;1.42;0.80;;;20.80;40.80;;;;;;4992196;28;20026;-63
2022/04/02 05:32:02;;;;;;;1.02;0.70;;;20.90;40.80;;;;;;4989997;28;20041;-62
2022/04/02 05:34:28;;;;;;;1.10;0.80;;;20.80;40.80;;;;;;4991378;28;20040;-62
2022/04/02 05:36:54;;;;;;;0.90;0.70;;;20.80;40.90;;;;;;4991658;28;20034;-63
2022/04/02 05:39:19;;;;;;;1.10;0.70;;;20.80;40.90;;;;;;4990775;28;20018;-64
2022/04/02 05:41:46;;;;;;;1.35;0.80;;;20.80;40.90;;;;;;4990622;28;20036;-62
2022/04/02 05:44:11;;;;;;;1.30;0.80;;;20.80;40.90;;;;;;4992214;28;20529;-66
2022/04/02 05:46:37;;;;;;;1.02;0.73;;;20.80;40.90;;;;;;4986296;28;20030;-62
2022/04/02 05:49:03;;;;;;;1.15;0.80;;;20.80;40.90;;;;;;4991824;28;20029;-62
2022/04/02 05:51:30;;;;;;;1.00;0.80;;;20.80;40.90;;;;;;4993280;28;20022;-65
2022/04/02 05:53:57;;;;;;;1.08;0.77;;;20.80;40.90;;;;;;4992155;28;20030;-63
2022/04/02 05:56:23;;;;;;;1.17;0.85;;;20.80;40.90;;;;;;4987456;28;20113;-63
2022/04/02 05:58:49;;;;;;;1.15;0.80;;;20.80;40.90;;;;;;4992023;28;20401;-63
2022/04/02 06:01:15;;;;;;;1.70;1.00;;;20.80;40.90;;;;;;4992386;28;20038;-65
2022/04/02 06:03:42;;;;;;;1.30;0.80;;;20.70;40.90;;;;;;4988237;28;20037;-64
2022/04/02 06:06:08;;;;;;;1.08;0.80;;;20.80;40.90;;;;;;4991071;28;20034;-61
2022/04/02 06:08:33;;;;;;;1.15;0.90;;;20.70;40.90;;;;;;4992490;28;20117;-61
2022/04/02 06:11:00;;;;;;;1.60;0.70;;;20.70;40.90;;;;;;4992480;28;20105;-67
2022/04/02 06:13:26;;;;;;;1.17;0.80;;;20.70;40.90;;;;;;4992687;28;20172;-61
2022/04/02 06:15:52;;;;;;;1.10;0.80;;;20.70;40.90;;;;;;4990999;28;20033;-62
2022/04/02 06:18:18;;;;;;;1.00;0.80;;;20.70;40.90;;;;;;4979906;28;20080;-64
2022/04/02 06:20:45;;;;;;;1.35;0.88;;;20.70;40.90;;;;;;4985288;28;20588;-63
2022/04/02 06:23:11;;;;;;;1.67;1.00;;;20.70;40.90;;;;;;4990023;28;20056;-61
2022/04/02 06:25:37;;;;;;;1.20;0.90;;;20.70;40.90;;;;;;4992478;28;20034;-63
2022/04/02 06:28:02;;;;;;;1.60;0.90;;;20.70;40.90;;;;;;4988633;28;20030;-63
2022/04/02 06:30:28;;;;;;;1.75;0.90;;;20.70;40.90;;;;;;4989673;28;20030;-62
2022/04/02 06:32:54;;;;;;;1.15;0.80;;;20.70;40.90;;;;;;4987680;28;20076;-63
2022/04/02 06:35:20;;;;;;;2.10;1.00;;;20.70;40.90;;;;;;4990153;28;20029;-60
2022/04/02 06:37:48;;;;;;;1.48;0.80;;;20.70;40.90;;;;;;4988272;28;20052;-63
2022/04/02 06:40:14;;;;;;;1.30;0.82;;;20.70;40.90;;;;;;4992010;28;20390;-63
2022/04/02 06:42:40;;;;;;;1.50;1.00;;;20.70;40.80;;;;;;4989888;28;20029;-63
2022/04/02 06:45:07;;;;;;;1.65;0.88;;;20.70;40.80;;;;;;4990477;28;20036;-63
2022/04/02 06:47:33;;;;;;;2.38;0.90;;;20.70;40.70;;;;;;4984875;28;20026;-63
2022/04/02 06:50:03;;;;;;;1.38;0.90;;;20.70;40.70;;;;;;4979231;28;20406;-66
2022/04/02 06:52:29;;;;;;;1.25;0.90;;;20.60;40.70;;;;;;4989829;28;20026;-63
2022/04/02 06:54:56;;;;;;;2.17;1.10;;;20.70;40.70;;;;;;4989413;28;20068;-66
2022/04/02 06:57:23;;;;;;;2.03;1.20;;;20.70;40.70;;;;;;4984663;28;20037;-61
2022/04/02 06:59:48;;;;;;;1.30;0.82;;;20.60;40.60;;;;;;4990839;28;20038;-64
2022/04/02 07:02:16;;;;;;;1.90;0.93;;;20.60;40.60;;;;;;4986498;28;20081;-63
2022/04/02 07:04:42;;;;;;;2.47;1.00;;;20.60;40.60;;;;;;4987596;28;20180;-62
2022/04/02 07:07:09;;;;;;;1.15;0.77;;;20.60;40.60;;;;;;4990679;28;20335;-63
2022/04/02 07:09:35;;;;;;;1.23;0.80;;;20.60;40.60;;;;;;4989529;28;20049;-63
2022/04/02 07:12:00;;;;;;;1.17;0.80;;;20.60;40.60;;;;;;4986775;28;20148;-60
2022/04/02 07:14:26;;;;;;;1.20;0.80;;;20.60;40.60;;;;;;4990380;28;20034;-61
2022/04/02 07:16:52;;;;;;;1.40;0.90;;;20.60;40.60;;;;;;4986619;28;20041;-59
2022/04/02 07:19:22;;;;;;;1.33;0.80;;;20.60;40.60;;;;;;4984187;28;20721;-63
2022/04/02 07:21:50;;;;;;;1.55;0.90;;;20.60;40.60;;;;;;4984906;28;20092;-61
2022/04/02 07:24:17;;;;;;;2.05;1.00;;;20.60;40.50;;;;;;4986809;28;20045;-62
2022/04/02 07:26:45;;;;;;;1.38;0.90;;;20.60;40.50;;;;;;4990312;28;20111;-61
2022/04/02 07:29:12;;;;;;;1.65;0.90;;;20.60;40.50;;;;;;4988308;28;20367;-61
2022/04/02 07:31:38;;;;;;;0.98;0.77;;;20.60;40.50;;;;;;4983990;28;20040;-62
2022/04/02 07:34:03;;;;;;;1.10;0.93;;;20.60;40.50;;;;;;4988625;28;20033;-62
2022/04/02 07:37:05;;;;;;;2.83;1.10;;;20.60;40.50;;;;;;4989011;28;20052;-63
2022/04/02 07:39:49;;;;;;;1.08;0.80;;;20.60;40.50;;;;;;4992269;28;20021;-66
2022/04/02 07:42:18;;;;;;;1.70;0.85;;;20.60;40.50;;;;;;4990092;28;20073;-61
2022/04/02 07:44:59;;;;;;;2.63;1.00;;;20.60;40.50;;;;;;5000185;28;20026;-62
2022/04/02 07:47:30;;;;;;;2.42;0.90;;;20.60;40.50;;;;;;4988644;28;20284;-62
2022/04/02 07:50:01;;;;;;;1.58;0.90;;;20.60;40.50;;;;;;4979107;28;20078;-62
2022/04/02 07:52:26;;;;;;;2.08;1.05;;;20.50;40.50;;;;;;4987187;28;20783;-63
2022/04/02 07:54:56;;;;;;;1.35;0.82;;;20.50;40.50;;;;;;4994276;28;20034;-62
2022/04/02 07:57:24;;;;;;;;;;;20.50;40.50;;;;;;4995322;28;20038;-60
2022/04/02 07:59:56;;;;;;;1.15;0.80;;;20.50;40.50;;;;;;4992406;28;20397;-63
2022/04/02 08:02:36;;;;;;;0.85;0.77;;;20.50;40.50;;;;;;4989871;28;20049;-62
2022/04/02 08:05:05;;;;;;;2.20;1.10;;;20.50;40.50;;;;;;4995101;28;20141;-67
2022/04/02 08:07:33;;;;;;;1.20;0.85;;;20.50;40.50;;;;;;4977683;28;20022;-62
2022/04/02 08:10:00;;;;;;;1.73;0.85;;;20.50;40.50;;;;;;4978787;28;20364;-62
2022/04/02 08:12:26;;;;;;;1.63;1.00;;;20.50;40.50;;;;;;4991452;28;20033;-62
2022/04/02 08:14:53;;;;;;;1.25;0.80;;;20.50;40.50;;;;;;4992306;28;20030;-67
2022/04/02 08:17:20;;;;;;;1.13;0.85;;;20.50;40.60;;;;;;4989112;28;20034;-63
2022/04/02 08:19:49;;;;;;;1.52;0.90;;;20.50;40.50;;;;;;4990838;28;20754;-62
2022/04/02 08:22:16;;;;;;;1.35;0.80;;;20.50;40.50;;;;;;4990789;28;20418;-66
2022/04/02 08:24:42;;;;;;;1.27;0.80;;;20.50;40.50;;;;;;4993409;28;20026;-60
2022/04/02 08:27:47;;;;;;;1.27;0.90;;;20.50;40.50;;;;;;4995110;28;20034;-67
2022/04/02 08:30:16;;;;;;;1.65;1.00;;;20.50;40.50;;;;;;4990493;28;20136;-63
2022/04/02 08:33:03;;;;;;;1.50;1.00;;;20.50;40.50;;;;;;4988106;28;20034;-61
2022/04/02 08:35:45;;;;;;;1.17;0.80;;;20.50;40.50;;;;;;4993870;28;20034;-61
2022/04/02 08:38:35;;;;;;;0.85;0.70;;;20.50;40.50;;;;;;4994128;28;20029;-62
2022/04/02 08:41:29;;;;;;;1.17;0.80;;;20.50;40.60;;;;;;4993117;28;20029;-67
2022/04/02 08:44:34;;;;;;;1.20;0.80;;;20.50;40.60;;;;;;4977780;28;20060;-63
2022/04/02 08:47:28;;;;;;;2.05;0.85;;;20.40;40.50;;;;;;4975290;28;20231;-60
2022/04/02 08:50:14;;;;;;;2.25;0.82;;;20.50;40.50;;;;;;4980656;28;20359;-62
2022/04/02 08:53:20;;;;;;;1.58;0.90;;;20.40;40.50;;;;;;4990162;28;20387;-64
2022/04/02 08:56:06;;;;;;;1.30;0.90;;;20.40;40.50;;;;;;4973422;28;20042;-62
2022/04/02 08:58:50;;;;;;;1.52;0.80;;;20.40;40.50;;;;;;4990910;28;20124;-63
2022/04/02 09:01:45;;;;;;;1.23;0.90;;;20.40;40.50;;;;;;4993729;28;20096;-62
2022/04/02 09:04:48;;;;;;;1.42;0.80;;;20.40;40.50;;;;;;4990667;28;20034;-62
2022/04/02 09:07:35;;;;;;;1.70;1.10;;;20.40;40.50;;;;;;4995442;28;20113;-62
2022/04/02 09:10:19;;;;;;;1.38;0.77;;;20.40;40.50;;;;;;4992541;28;20029;-66
2022/04/02 09:13:03;;;;;;;1.17;0.90;;;20.40;40.50;;;;;;4994963;28;20026;-61
2022/04/02 09:16:07;;;;;;;1.23;0.85;;;20.40;40.50;;;;;;4993654;28;20030;-61
2022/04/02 09:18:44;;;;;;;1.58;0.80;;;20.40;40.50;;;;;;4988380;28;20034;-62
2022/04/02 09:21:41;;;;;;;1.67;0.88;;;20.40;40.50;;;;;;4993976;28;20451;-61
2022/04/02 09:24:59;;;;;;;1.08;0.80;;;20.40;40.60;;;;;;4995846;28;20040;-60
2022/04/02 09:27:40;;;;;;;1.00;0.70;;;20.40;40.50;;;;;;4979451;28;20636;-63
2022/04/02 09:30:22;;;;;;;1.75;1.00;;;20.40;40.60;;;;;;4990245;28;20135;-63
2022/04/02 09:33:32;;;;;;;1.10;0.80;;;20.40;40.60;;;;;;4988164;28;20021;-62
2022/04/02 09:36:21;;;;;;;1.52;0.85;;;20.40;40.60;;;;;;4908598;29;20053;-62
2022/04/02 09:38:59;;;;;;;1.30;0.80;;;20.40;40.60;;;;;;4989612;28;20569;-63
2022/04/02 09:41:36;;;;;;;1.30;0.90;;;20.40;40.60;;;;;;4979973;28;20026;-60
2022/04/02 09:44:40;;;;;;;1.33;0.80;;;20.40;40.60;;;;;;4976648;28;20022;-60
2022/04/02 09:47:49;;;;;;;1.33;0.90;;;20.40;40.60;;;;;;4987170;28;20037;-63
2022/04/02 09:50:20;;;;;;;2.03;1.10;;;20.40;40.60;;;;;;4992927;28;20109;-61
2022/04/02 09:53:11;;;;;;;0.80;0.77;;;20.40;40.60;;;;;;4994166;28;20505;-60
2022/04/02 09:55:56;;;;;;;1.08;0.80;;;20.40;40.60;;;;;;4994628;28;20453;-65
2022/04/02 09:58:28;;;;;;;1.23;0.80;;;20.40;40.60;;;;;;4994780;28;20037;-63
2022/04/02 10:01:02;;;;;;;1.42;0.90;;;20.40;40.60;;;;;;4990965;28;20354;-62
2022/04/02 10:03:53;;;;;;;1.60;0.95;;;20.40;40.60;;;;;;4984383;28;20030;-67
2022/04/02 10:06:27;;;;;;;1.50;0.80;;;20.40;40.60;;;;;;4992220;28;20038;-67
2022/04/02 10:08:56;;;;;;;1.83;0.98;;;20.30;40.60;;;;;;4994410;28;20034;-64
2022/04/02 10:11:27;;;;;;;1.10;0.80;;;20.40;40.60;;;;;;4990239;28;20109;-63
2022/04/02 10:13:53;;;;;;;1.58;1.00;;;20.40;40.70;;;;;;4992922;28;20648;-63
2022/04/02 10:16:23;;;;;;;1.27;0.90;;;20.30;40.60;;;;;;4987793;28;21822;-64
2022/04/02 10:18:53;;;;;;;1.23;0.80;;;20.30;40.50;;;;;;4984033;28;20108;-63
2022/04/02 10:21:20;;;;;;;1.50;0.90;;;20.40;40.60;;;;;;4970671;28;20072;-63
2022/04/02 10:23:54;;;;;;;1.73;0.90;;;20.30;40.60;;;;;;4975234;28;20232;-67
2022/04/02 10:26:22;;;;;;;1.13;0.88;;;20.30;40.60;;;;;;4989352;28;20041;-65
2022/04/02 10:28:53;;;;;;;1.85;0.90;;;20.30;40.60;;;;;;4992550;28;20089;-65
2022/04/02 10:31:27;;;;;;;1.48;0.88;;;20.30;40.60;;;;;;4985395;28;20117;-64
2022/04/02 10:34:03;;;;;;;1.30;0.90;;;20.30;40.60;;;;;;4989125;28;20026;-67
2022/04/02 10:36:29;;;;;;;1.30;0.73;;;20.30;40.60;;;;;;4993372;28;20030;-62
2022/04/02 10:38:56;;;;;;;1.17;0.90;;;20.30;40.60;;;;;;4991223;28;20021;-62
2022/04/02 10:41:28;;;;;;;1.67;1.00;;;20.30;40.60;;;;;;4994609;28;20026;-63
2022/04/02 10:44:08;;;;;;;2.65;1.00;;;20.30;40.60;;;;;;4990504;28;20021;-65
2022/04/02 10:46:33;;;;;;;;;;;20.30;40.70;;;;;;4995703;28;20026;-64
2022/04/02 10:49:03;;;;;;;1.40;1.00;;;20.40;40.90;;;;;;5002877;28;19964;-64
2022/04/02 10:51:30;;;;;;;1.52;1.10;;;20.40;40.90;;;;;;5001284;28;20439;-64
2022/04/02 10:54:12;;;;;;;1.52;1.00;;;20.40;40.90;;;;;;4994844;28;20033;-64
2022/04/02 10:56:43;;;;;;;1.98;1.13;;;20.40;40.80;;;;;;4999413;28;20053;-62
2022/04/02 10:59:10;;;;;;;2.28;1.17;;;20.50;40.80;;;;;;5000091;28;20406;-65
2022/04/02 11:01:40;;;;;;;1.50;1.17;;;20.50;40.90;;;;;;4999575;28;20045;-63
2022/04/02 11:04:26;;;;;;;2.00;1.27;;;20.50;40.80;;;;;;5004634;28;20373;-63
2022/04/02 11:06:52;;;;;;;1.52;1.08;;;20.50;40.80;;;;;;5004262;28;20032;-64
2022/04/02 11:09:39;;;;;;;1.90;1.25;;;20.60;40.70;;;;;;5001228;28;20109;-63
2022/04/02 11:12:15;;;;;;;1.48;1.10;;;20.60;40.70;;;;;;4999872;28;20030;-64
2022/04/02 11:14:47;;;;;;;2.55;1.08;;;20.70;40.70;;;;;;5002123;28;20088;-65
2022/04/02 11:17:33;;;;;;;2.88;1.30;;;20.70;40.60;;;;;;4998545;28;20473;-66
2022/04/02 11:20:23;;;;;;;2.20;1.20;;;20.80;40.80;;;;;;5002240;28;20029;-64
2022/04/02 11:22:51;;;;;;;3.03;1.60;;;20.80;40.60;;;;;;4991249;28;20030;-67
2022/04/02 11:25:23;;;;;;;1.92;1.10;;;21.00;40.50;;;;;;4992874;28;20034;-65
2022/04/02 11:27:50;;;;;;;2.28;1.42;;;21.10;40.30;;;;;;5002276;28;20034;-65
2022/04/02 11:30:17;;;;;;;3.28;1.42;;;21.20;40.20;;;;;;4994907;28;20052;-65
2022/04/02 11:32:48;;;;;;;1.92;1.45;;;21.30;40.10;;;;;;4985728;28;20030;-66
2022/04/02 11:35:24;;;;;;;2.30;1.30;;;21.40;39.90;;;;;;4986155;28;20022;-65
2022/04/02 11:38:12;;;;;;;2.42;1.40;;;21.50;39.70;;;;;;5009967;28;20038;-63
2022/04/02 11:40:41;;;;;;;1.85;1.15;;;21.60;39.70;;;;;;5002846;28;20041;-63
2022/04/02 11:43:07;;;;;;;2.20;1.30;;;21.70;39.50;;;;;;4998843;28;20319;-65
2022/04/02 11:45:36;;;;;;;1.77;1.23;;;21.80;39.30;;;;;;4996321;28;20461;-64
2022/04/02 11:48:18;;;;;;;2.65;1.20;;;21.90;39.30;;;;;;4996904;28;20040;-63
2022/04/02 11:50:45;;;;;;;1.80;1.20;;;22.00;39.10;;;;;;4989938;28;20353;-67
2022/04/02 11:53:14;;;;;;;1.70;1.20;;;22.00;38.90;;;;;;5004075;28;20045;-64
2022/04/02 11:55:41;;;;;;;2.22;1.40;;;22.10;38.80;;;;;;4990153;28;20084;-66
2022/04/02 11:58:08;;;;;;;2.50;1.30;;;22.20;38.70;;;;;;4991024;28;20038;-64
2022/04/02 12:00:42;;;;;;;2.90;1.42;;;22.30;38.60;;;;;;4987045;28;20426;-63
2022/04/02 12:03:21;;;;;;;2.30;1.33;;;22.40;38.50;;;;;;4994542;28;21004;-64
2022/04/02 12:05:48;;;;;;;1.77;1.33;;;22.50;38.20;;;;;;4996678;28;20041;-65
2022/04/02 12:08:31;;;;;;;1.95;1.27;;;22.60;38.20;;;;;;4991882;28;20117;-66
2022/04/02 12:10:58;;;;;;;1.88;1.30;;;22.60;38.00;;;;;;4983904;28;20123;-65
2022/04/02 12:13:24;;;;;;;1.73;1.20;;;22.70;37.90;;;;;;4996005;28;20037;-64
2022/04/02 12:16:13;;;;;;;2.28;1.20;;;22.70;38.00;;;;;;4985934;28;20557;-63
2022/04/02 12:18:58;;;;;;;1.85;1.10;;;22.70;37.90;;;;;;4980106;28;20044;-67
2022/04/02 12:21:35;;;;;;;1.85;1.10;;;22.70;37.90;;;;;;4985771;28;20042;-64
2022/04/02 12:24:03;;;;;;;2.00;1.10;;;22.60;37.80;;;;;;4979324;28;20470;-68
2022/04/02 12:26:30;;;;;;;2.30;1.50;;;22.60;37.90;;;;;;4990821;28;20033;-68
2022/04/02 12:28:58;;;;;;;1.60;1.00;;;22.60;38.00;;;;;;4987876;28;20037;-67
2022/04/02 12:31:27;;;;;;;1.98;1.10;;;22.60;38.00;;;;;;4995770;28;20038;-66
2022/04/02 12:33:53;;;;;;;;;;;22.60;38.20;;;;;;5000547;28;20022;-63
2022/04/02 12:36:34;;;;;;;2.20;1.30;;;22.60;37.90;;;;;;5004871;28;19917;-65
2022/04/02 12:39:03;;;;;;;2.00;1.10;;;22.60;37.90;;;;;;4988668;28;20178;-66
2022/04/02 12:41:29;;;;;;;3.00;1.10;;;22.60;37.90;;;;;;4997391;28;20057;-64
2022/04/02 12:44:03;;;;;;;1.92;1.17;;;22.60;37.90;;;;;;4989916;28;20026;-65
2022/04/02 12:46:30;;;;;;;2.40;1.20;;;22.60;37.90;;;;;;4993741;28;20055;-63
2022/04/02 12:48:58;;;;;;;2.15;1.30;;;22.60;37.90;;;;;;4997160;28;20029;-63
2022/04/02 12:51:25;;;;;;;3.00;1.40;;;22.60;37.80;;;;;;4991779;28;20150;-67
2022/04/02 12:53:58;;;;;;;1.90;1.20;;;22.60;38.00;;;;;;4976877;28;20937;-65
2022/04/02 12:56:27;;;;;;;1.75;1.25;;;22.60;38.00;;;;;;4984711;28;20430;-67
2022/04/02 12:58:55;;;;;;;3.15;1.10;;;22.70;38.10;;;;;;4986784;28;20053;-68
2022/04/02 13:01:25;;;;;;;2.17;1.20;;;22.70;38.10;;;;;;4997119;28;20046;-64
2022/04/02 13:04:00;;;;;;;1.70;1.20;;;22.70;38.00;;;;;;4984006;28;20103;-63
2022/04/02 13:06:32;;;;;;;1.73;1.10;;;22.70;38.00;;;;;;4985738;28;20531;-69
2022/04/02 13:09:01;;;;;;;1.88;1.10;;;22.70;38.10;;;;;;4987291;28;20030;-64